sensor_id;sensor_type;location;lat;lon;timestamp;temperature;humidity
68387;DHT22;55338;43.062;25.624;2022-08-18T00:02:06;21.80;83.90
68387;DHT22;55338;43.062;25.624;2022-08-18T00:04:33;21.80;83.40
68387;DHT22;55338;43.062;25.624;2022-08-18T00:07:13;21.70;84.30
68387;DHT22;55338;43.062;25.624;2022-08-18T00:09:40;21.70;84.50
68387;DHT22;55338;43.062;25.624;2022-08-18T00:12:13;21.60;84.60
68387;DHT22;55338;43.062;25.624;2022-08-18T00:14:39;21.60;84.50
68387;DHT22;55338;43.062;25.624;2022-08-18T00:17:05;21.60;84.90
68387;DHT22;55338;43.062;25.624;2022-08-18T00:19:31;21.60;84.90
68387;DHT22;55338;43.062;25.624;2022-08-18T00:21:57;21.60;84.70
68387;DHT22;55338;43.062;25.624;2022-08-18T00:24:24;21.50;85.00
68387;DHT22;55338;43.062;25.624;2022-08-18T00:26:50;21.50;84.90
68387;DHT22;55338;43.062;25.624;2022-08-18T00:29:17;21.50;84.70
68387;DHT22;55338;43.062;25.624;2022-08-18T00:31:43;21.50;84.90
68387;DHT22;55338;43.062;25.624;2022-08-18T00:34:09;21.50;85.20
68387;DHT22;55338;43.062;25.624;2022-08-18T00:36:35;21.40;85.50
68387;DHT22;55338;43.062;25.624;2022-08-18T00:39:02;21.40;86.00
68387;DHT22;55338;43.062;25.624;2022-08-18T00:41:28;21.30;86.40
68387;DHT22;55338;43.062;25.624;2022-08-18T00:43:55;21.20;86.40
68387;DHT22;55338;43.062;25.624;2022-08-18T00:46:34;21.20;86.40
68387;DHT22;55338;43.062;25.624;2022-08-18T00:49:00;21.20;86.70
68387;DHT22;55338;43.062;25.624;2022-08-18T00:51:38;21.20;86.40
68387;DHT22;55338;43.062;25.624;2022-08-18T00:54:18;21.20;86.70
68387;DHT22;55338;43.062;25.624;2022-08-18T00:56:54;21.20;86.80
68387;DHT22;55338;43.062;25.624;2022-08-18T00:59:47;21.10;86.80
68387;DHT22;55338;43.062;25.624;2022-08-18T01:02:22;21.10;86.80
68387;DHT22;55338;43.062;25.624;2022-08-18T01:05:02;21.10;86.90
68387;DHT22;55338;43.062;25.624;2022-08-18T01:07:35;21.10;87.10
68387;DHT22;55338;43.062;25.624;2022-08-18T01:10:03;21.00;87.50
68387;DHT22;55338;43.062;25.624;2022-08-18T01:12:30;20.90;87.60
68387;DHT22;55338;43.062;25.624;2022-08-18T01:14:56;20.90;87.60
68387;DHT22;55338;43.062;25.624;2022-08-18T01:17:23;20.90;87.70
68387;DHT22;55338;43.062;25.624;2022-08-18T01:20:11;20.90;87.80
68387;DHT22;55338;43.062;25.624;2022-08-18T01:23:03;20.90;87.70
68387;DHT22;55338;43.062;25.624;2022-08-18T01:25:32;20.80;87.80
68387;DHT22;55338;43.062;25.624;2022-08-18T01:28:16;20.80;88.20
68387;DHT22;55338;43.062;25.624;2022-08-18T01:30:50;20.80;88.10
68387;DHT22;55338;43.062;25.624;2022-08-18T01:33:20;20.80;87.70
68387;DHT22;55338;43.062;25.624;2022-08-18T01:35:47;20.70;88.30
68387;DHT22;55338;43.062;25.624;2022-08-18T01:38:18;20.70;88.30
68387;DHT22;55338;43.062;25.624;2022-08-18T01:40:45;20.70;88.30
68387;DHT22;55338;43.062;25.624;2022-08-18T01:43:12;20.70;88.50
68387;DHT22;55338;43.062;25.624;2022-08-18T01:45:39;20.70;88.60
68387;DHT22;55338;43.062;25.624;2022-08-18T01:48:06;20.60;88.90
68387;DHT22;55338;43.062;25.624;2022-08-18T01:50:32;20.60;88.90
68387;DHT22;55338;43.062;25.624;2022-08-18T01:53:00;20.60;88.80
68387;DHT22;55338;43.062;25.624;2022-08-18T01:55:26;20.60;89.10
68387;DHT22;55338;43.062;25.624;2022-08-18T01:57:53;20.50;89.10
68387;DHT22;55338;43.062;25.624;2022-08-18T02:00:20;20.40;89.10
68387;DHT22;55338;43.062;25.624;2022-08-18T02:02:47;20.50;89.40
68387;DHT22;55338;43.062;25.624;2022-08-18T02:05:17;20.40;89.10
68387;DHT22;55338;43.062;25.624;2022-08-18T02:07:44;20.40;89.00
68387;DHT22;55338;43.062;25.624;2022-08-18T02:10:10;20.40;89.10
68387;DHT22;55338;43.062;25.624;2022-08-18T02:12:37;20.30;89.80
68387;DHT22;55338;43.062;25.624;2022-08-18T02:15:04;20.30;89.60
68387;DHT22;55338;43.062;25.624;2022-08-18T02:17:36;20.20;90.20
68387;DHT22;55338;43.062;25.624;2022-08-18T02:20:03;20.20;90.10
68387;DHT22;55338;43.062;25.624;2022-08-18T02:22:29;20.20;90.40
68387;DHT22;55338;43.062;25.624;2022-08-18T02:24:56;20.20;90.40
68387;DHT22;55338;43.062;25.624;2022-08-18T02:27:22;20.20;90.40
68387;DHT22;55338;43.062;25.624;2022-08-18T02:29:47;19.90;90.40
68387;DHT22;55338;43.062;25.624;2022-08-18T02:32:13;20.20;90.40
68387;DHT22;55338;43.062;25.624;2022-08-18T02:34:39;20.20;89.70
68387;DHT22;55338;43.062;25.624;2022-08-18T02:37:07;20.20;90.50
68387;DHT22;55338;43.062;25.624;2022-08-18T02:39:35;20.20;90.50
68387;DHT22;55338;43.062;25.624;2022-08-18T02:42:05;20.10;90.80
68387;DHT22;55338;43.062;25.624;2022-08-18T02:44:32;20.10;90.80
68387;DHT22;55338;43.062;25.624;2022-08-18T02:46:58;20.00;90.90
68387;DHT22;55338;43.062;25.624;2022-08-18T02:49:24;20.00;91.30
68387;DHT22;55338;43.062;25.624;2022-08-18T02:51:51;20.00;91.50
68387;DHT22;55338;43.062;25.624;2022-08-18T02:54:21;20.00;91.30
68387;DHT22;55338;43.062;25.624;2022-08-18T02:56:49;20.00;90.90
68387;DHT22;55338;43.062;25.624;2022-08-18T02:59:23;20.00;90.80
68387;DHT22;55338;43.062;25.624;2022-08-18T03:01:50;20.00;90.70
68387;DHT22;55338;43.062;25.624;2022-08-18T03:04:20;20.00;90.50
68387;DHT22;55338;43.062;25.624;2022-08-18T03:06:46;20.00;90.90
68387;DHT22;55338;43.062;25.624;2022-08-18T03:09:14;20.00;91.00
68387;DHT22;55338;43.062;25.624;2022-08-18T03:11:41;20.00;91.30
68387;DHT22;55338;43.062;25.624;2022-08-18T03:14:07;19.90;91.50
68387;DHT22;55338;43.062;25.624;2022-08-18T03:16:36;19.80;91.70
68387;DHT22;55338;43.062;25.624;2022-08-18T03:19:02;19.80;92.20
68387;DHT22;55338;43.062;25.624;2022-08-18T03:21:30;19.80;92.20
68387;DHT22;55338;43.062;25.624;2022-08-18T03:23:59;19.80;91.90
68387;DHT22;55338;43.062;25.624;2022-08-18T03:26:25;19.80;91.80
68387;DHT22;55338;43.062;25.624;2022-08-18T03:28:53;19.80;91.80
68387;DHT22;55338;43.062;25.624;2022-08-18T03:31:21;19.70;92.00
68387;DHT22;55338;43.062;25.624;2022-08-18T03:33:48;19.70;92.30
68387;DHT22;55338;43.062;25.624;2022-08-18T03:36:22;19.70;92.20
68387;DHT22;55338;43.062;25.624;2022-08-18T03:38:50;19.70;92.40
68387;DHT22;55338;43.062;25.624;2022-08-18T03:41:19;19.70;92.20
68387;DHT22;55338;43.062;25.624;2022-08-18T03:43:47;19.80;92.10
68387;DHT22;55338;43.062;25.624;2022-08-18T03:46:14;19.80;91.70
68387;DHT22;55338;43.062;25.624;2022-08-18T03:48:42;19.90;92.00
68387;DHT22;55338;43.062;25.624;2022-08-18T03:51:12;19.80;92.00
68387;DHT22;55338;43.062;25.624;2022-08-18T03:53:39;19.90;91.70
68387;DHT22;55338;43.062;25.624;2022-08-18T03:56:11;19.90;91.70
68387;DHT22;55338;43.062;25.624;2022-08-18T03:59:01;19.90;91.50
68387;DHT22;55338;43.062;25.624;2022-08-18T04:01:30;19.90;91.80
68387;DHT22;55338;43.062;25.624;2022-08-18T04:04:02;20.00;91.60
68387;DHT22;55338;43.062;25.624;2022-08-18T04:06:39;20.10;91.30
68387;DHT22;55338;43.062;25.624;2022-08-18T04:09:08;20.20;90.80
68387;DHT22;55338;43.062;25.624;2022-08-18T04:11:35;20.30;90.30
68387;DHT22;55338;43.062;25.624;2022-08-18T04:14:03;20.40;90.10
68387;DHT22;55338;43.062;25.624;2022-08-18T04:16:30;20.50;89.70
68387;DHT22;55338;43.062;25.624;2022-08-18T04:18:57;20.60;89.50
68387;DHT22;55338;43.062;25.624;2022-08-18T04:21:37;20.70;88.80
68387;DHT22;55338;43.062;25.624;2022-08-18T04:24:04;20.90;88.20
68387;DHT22;55338;43.062;25.624;2022-08-18T04:26:36;21.00;88.10
68387;DHT22;55338;43.062;25.624;2022-08-18T04:29:04;21.00;87.90
68387;DHT22;55338;43.062;25.624;2022-08-18T04:31:30;21.20;87.40
68387;DHT22;55338;43.062;25.624;2022-08-18T04:33:57;21.40;86.80
68387;DHT22;55338;43.062;25.624;2022-08-18T04:36:24;21.60;86.50
68387;DHT22;55338;43.062;25.624;2022-08-18T04:38:51;21.80;85.70
68387;DHT22;55338;43.062;25.624;2022-08-18T04:41:16;21.90;85.10
68387;DHT22;55338;43.062;25.624;2022-08-18T04:43:42;22.10;84.50
68387;DHT22;55338;43.062;25.624;2022-08-18T04:46:08;22.20;83.90
68387;DHT22;55338;43.062;25.624;2022-08-18T04:48:37;22.40;83.30
68387;DHT22;55338;43.062;25.624;2022-08-18T04:51:08;22.60;83.00
68387;DHT22;55338;43.062;25.624;2022-08-18T04:53:35;22.60;82.50
68387;DHT22;55338;43.062;25.624;2022-08-18T04:56:23;22.80;82.20
68387;DHT22;55338;43.062;25.624;2022-08-18T04:58:56;23.00;81.10
68387;DHT22;55338;43.062;25.624;2022-08-18T05:01:28;23.10;80.50
68387;DHT22;55338;43.062;25.624;2022-08-18T05:03:56;23.10;80.00
68387;DHT22;55338;43.062;25.624;2022-08-18T05:06:23;23.20;79.60
68387;DHT22;55338;43.062;25.624;2022-08-18T05:08:51;23.40;79.00
68387;DHT22;55338;43.062;25.624;2022-08-18T05:11:19;23.50;78.10
68387;DHT22;55338;43.062;25.624;2022-08-18T05:13:46;23.70;77.50
68387;DHT22;55338;43.062;25.624;2022-08-18T05:16:13;23.90;77.00
68387;DHT22;55338;43.062;25.624;2022-08-18T05:18:39;24.00;76.00
68387;DHT22;55338;43.062;25.624;2022-08-18T05:21:08;24.30;75.80
68387;DHT22;55338;43.062;25.624;2022-08-18T05:23:42;24.50;75.50
68387;DHT22;55338;43.062;25.624;2022-08-18T05:26:09;24.70;76.00
68387;DHT22;55338;43.062;25.624;2022-08-18T05:28:35;24.90;74.40
68387;DHT22;55338;43.062;25.624;2022-08-18T05:31:25;25.00;73.20
68387;DHT22;55338;43.062;25.624;2022-08-18T05:33:52;25.20;72.50
68387;DHT22;55338;43.062;25.624;2022-08-18T05:41:32;25.70;69.30
68387;DHT22;55338;43.062;25.624;2022-08-18T05:43:59;26.00;70.40
68387;DHT22;55338;43.062;25.624;2022-08-18T05:48:59;26.50;66.90
68387;DHT22;55338;43.062;25.624;2022-08-18T05:51:53;26.80;66.10
68387;DHT22;55338;43.062;25.624;2022-08-18T05:54:19;26.90;64.80
68387;DHT22;55338;43.062;25.624;2022-08-18T05:57:17;27.00;64.80
68387;DHT22;55338;43.062;25.624;2022-08-18T05:59:44;27.30;63.40
68387;DHT22;55338;43.062;25.624;2022-08-18T06:02:42;27.50;62.20
68387;DHT22;55338;43.062;25.624;2022-08-18T06:05:24;27.90;60.80
68387;DHT22;55338;43.062;25.624;2022-08-18T06:07:59;28.20;59.20
68387;DHT22;55338;43.062;25.624;2022-08-18T06:10:26;28.60;57.60
68387;DHT22;55338;43.062;25.624;2022-08-18T06:12:57;29.00;56.60
68387;DHT22;55338;43.062;25.624;2022-08-18T06:24:17;30.90;50.50
68387;DHT22;55338;43.062;25.624;2022-08-18T06:26:57;31.50;49.20
68387;DHT22;55338;43.062;25.624;2022-08-18T06:38:29;32.90;43.20
68387;DHT22;55338;43.062;25.624;2022-08-18T06:41:49;33.10;42.60
68387;DHT22;55338;43.062;25.624;2022-08-18T06:49:05;34.10;41.40
68387;DHT22;55338;43.062;25.624;2022-08-18T06:51:32;34.00;40.70
68387;DHT22;55338;43.062;25.624;2022-08-18T06:54:25;34.20;40.20
68387;DHT22;55338;43.062;25.624;2022-08-18T06:56:53;34.60;39.00
68387;DHT22;55338;43.062;25.624;2022-08-18T07:02:21;35.10;37.70
68387;DHT22;55338;43.062;25.624;2022-08-18T07:05:04;35.20;37.10
68387;DHT22;55338;43.062;25.624;2022-08-18T07:07:36;35.50;35.70
68387;DHT22;55338;43.062;25.624;2022-08-18T07:12:39;36.20;35.30
68387;DHT22;55338;43.062;25.624;2022-08-18T07:15:06;36.50;33.80
68387;DHT22;55338;43.062;25.624;2022-08-18T07:17:34;36.70;33.90
68387;DHT22;55338;43.062;25.624;2022-08-18T07:20:24;37.00;33.20
68387;DHT22;55338;43.062;25.624;2022-08-18T07:25:23;37.40;31.40
68387;DHT22;55338;43.062;25.624;2022-08-18T07:27:51;37.30;31.30
68387;DHT22;55338;43.062;25.624;2022-08-18T07:33:08;37.50;30.70
68387;DHT22;55338;43.062;25.624;2022-08-18T07:35:58;37.50;30.10
68387;DHT22;55338;43.062;25.624;2022-08-18T07:41:08;38.10;30.00
68387;DHT22;55338;43.062;25.624;2022-08-18T07:43:52;38.40;28.90
68387;DHT22;55338;43.062;25.624;2022-08-18T07:46:30;38.80;27.60
68387;DHT22;55338;43.062;25.624;2022-08-18T07:48:57;38.80;27.70
68387;DHT22;55338;43.062;25.624;2022-08-18T07:54:26;38.90;27.20
68387;DHT22;55338;43.062;25.624;2022-08-18T08:05:34;39.70;25.80
68387;DHT22;55338;43.062;25.624;2022-08-18T08:11:17;40.20;25.80
68387;DHT22;55338;43.062;25.624;2022-08-18T08:20:00;40.30;24.80
68387;DHT22;55338;43.062;25.624;2022-08-18T08:22:28;40.00;25.40
68387;DHT22;55338;43.062;25.624;2022-08-18T08:25:18;40.30;25.00
68387;DHT22;55338;43.062;25.624;2022-08-18T08:30:26;40.30;25.00
68387;DHT22;55338;43.062;25.624;2022-08-18T08:35:50;41.30;23.70
68387;DHT22;55338;43.062;25.624;2022-08-18T08:41:04;41.10;23.90
68387;DHT22;55338;43.062;25.624;2022-08-18T08:43:47;41.10;23.90
68387;DHT22;55338;43.062;25.624;2022-08-18T08:46:21;40.40;24.90
68387;DHT22;55338;43.062;25.624;2022-08-18T08:49:14;40.00;25.00
68387;DHT22;55338;43.062;25.624;2022-08-18T08:51:47;40.60;23.40
68387;DHT22;55338;43.062;25.624;2022-08-18T08:54:20;40.70;23.20
68387;DHT22;55338;43.062;25.624;2022-08-18T08:56:54;40.60;23.20
68387;DHT22;55338;43.062;25.624;2022-08-18T08:59:22;41.10;22.80
68387;DHT22;55338;43.062;25.624;2022-08-18T09:02:18;41.20;22.70
68387;DHT22;55338;43.062;25.624;2022-08-18T09:23:48;40.50;22.80
68387;DHT22;55338;43.062;25.624;2022-08-18T09:29:25;40.50;22.40
68387;DHT22;55338;43.062;25.624;2022-08-18T09:37:38;40.30;22.50
68387;DHT22;55338;43.062;25.624;2022-08-18T09:40:14;40.40;22.20
68387;DHT22;55338;43.062;25.624;2022-08-18T09:43:15;40.00;23.30
68387;DHT22;55338;43.062;25.624;2022-08-18T09:53:51;41.90;20.50
68387;DHT22;55338;43.062;25.624;2022-08-18T10:01:56;42.40;19.60
68387;DHT22;55338;43.062;25.624;2022-08-18T10:07:27;42.60;19.20
68387;DHT22;55338;43.062;25.624;2022-08-18T10:18:13;42.80;18.10
68387;DHT22;55338;43.062;25.624;2022-08-18T10:21:07;42.60;18.20
68387;DHT22;55338;43.062;25.624;2022-08-18T10:37:26;44.40;16.10
68387;DHT22;55338;43.062;25.624;2022-08-18T10:40:18;44.30;16.70
68387;DHT22;55338;43.062;25.624;2022-08-18T10:43:22;44.60;15.80
68387;DHT22;55338;43.062;25.624;2022-08-18T10:45:55;44.40;15.80
68387;DHT22;55338;43.062;25.624;2022-08-18T10:48:30;44.60;16.10
68387;DHT22;55338;43.062;25.624;2022-08-18T10:51:17;44.60;16.10
68387;DHT22;55338;43.062;25.624;2022-08-18T10:59:27;45.60;14.00
68387;DHT22;55338;43.062;25.624;2022-08-18T11:04:50;44.80;15.50
68387;DHT22;55338;43.062;25.624;2022-08-18T11:07:25;45.00;15.60
68387;DHT22;55338;43.062;25.624;2022-08-18T11:09:54;44.90;15.20
68387;DHT22;55338;43.062;25.624;2022-08-18T11:18:38;42.60;18.20
68387;DHT22;55338;43.062;25.624;2022-08-18T11:21:31;42.30;19.00
68387;DHT22;55338;43.062;25.624;2022-08-18T11:24:04;42.80;17.40
68387;DHT22;55338;43.062;25.624;2022-08-18T11:26:33;42.50;19.00
68387;DHT22;55338;43.062;25.624;2022-08-18T11:29:00;43.10;17.30
68387;DHT22;55338;43.062;25.624;2022-08-18T11:31:26;42.70;17.90
68387;DHT22;55338;43.062;25.624;2022-08-18T11:33:52;43.00;17.50
68387;DHT22;55338;43.062;25.624;2022-08-18T11:36:29;42.90;17.20
68387;DHT22;55338;43.062;25.624;2022-08-18T11:38:55;42.70;17.50
68387;DHT22;55338;43.062;25.624;2022-08-18T11:41:26;42.20;18.10
68387;DHT22;55338;43.062;25.624;2022-08-18T11:43:58;41.90;18.10
68387;DHT22;55338;43.062;25.624;2022-08-18T11:46:36;42.10;18.40
68387;DHT22;55338;43.062;25.624;2022-08-18T11:49:18;42.60;17.70
68387;DHT22;55338;43.062;25.624;2022-08-18T11:51:59;42.30;18.20
68387;DHT22;55338;43.062;25.624;2022-08-18T11:54:43;42.20;18.80
68387;DHT22;55338;43.062;25.624;2022-08-18T11:57:50;42.90;17.10
68387;DHT22;55338;43.062;25.624;2022-08-18T12:03:02;43.10;17.10
68387;DHT22;55338;43.062;25.624;2022-08-18T12:05:29;42.40;17.80
68387;DHT22;55338;43.062;25.624;2022-08-18T12:08:22;42.80;17.90
68387;DHT22;55338;43.062;25.624;2022-08-18T12:11:05;43.20;17.20
68387;DHT22;55338;43.062;25.624;2022-08-18T12:13:32;42.70;17.50
68387;DHT22;55338;43.062;25.624;2022-08-18T12:16:10;42.70;18.20
68387;DHT22;55338;43.062;25.624;2022-08-18T12:18:37;42.90;17.20
68387;DHT22;55338;43.062;25.624;2022-08-18T12:21:03;42.50;17.80
68387;DHT22;55338;43.062;25.624;2022-08-18T12:23:35;42.70;17.50
68387;DHT22;55338;43.062;25.624;2022-08-18T12:26:01;43.00;17.50
68387;DHT22;55338;43.062;25.624;2022-08-18T12:28:27;42.80;16.90
68387;DHT22;55338;43.062;25.624;2022-08-18T12:30:53;43.30;17.50
68387;DHT22;55338;43.062;25.624;2022-08-18T12:33:18;43.80;16.20
68387;DHT22;55338;43.062;25.624;2022-08-18T12:35:44;44.00;16.10
68387;DHT22;55338;43.062;25.624;2022-08-18T12:38:11;43.40;16.30
68387;DHT22;55338;43.062;25.624;2022-08-18T12:40:38;42.70;17.20
68387;DHT22;55338;43.062;25.624;2022-08-18T12:43:04;42.70;17.20
68387;DHT22;55338;43.062;25.624;2022-08-18T12:45:36;42.80;17.40
68387;DHT22;55338;43.062;25.624;2022-08-18T12:48:02;43.00;17.30
68387;DHT22;55338;43.062;25.624;2022-08-18T12:50:28;42.90;16.30
68387;DHT22;55338;43.062;25.624;2022-08-18T12:52:54;42.10;17.40
68387;DHT22;55338;43.062;25.624;2022-08-18T12:55:19;42.10;17.90
68387;DHT22;55338;43.062;25.624;2022-08-18T12:57:45;42.40;17.60
68387;DHT22;55338;43.062;25.624;2022-08-18T13:00:11;42.90;16.90
68387;DHT22;55338;43.062;25.624;2022-08-18T13:02:37;43.30;16.40
68387;DHT22;55338;43.062;25.624;2022-08-18T13:05:03;43.40;16.20
68387;DHT22;55338;43.062;25.624;2022-08-18T13:07:29;43.50;16.00
68387;DHT22;55338;43.062;25.624;2022-08-18T13:09:55;43.90;16.00
68387;DHT22;55338;43.062;25.624;2022-08-18T13:12:21;44.00;15.10
68387;DHT22;55338;43.062;25.624;2022-08-18T13:14:51;44.00;15.70
68387;DHT22;55338;43.062;25.624;2022-08-18T13:17:19;44.40;15.20
68387;DHT22;55338;43.062;25.624;2022-08-18T13:19:46;44.20;15.40
68387;DHT22;55338;43.062;25.624;2022-08-18T13:22:12;44.40;15.40
68387;DHT22;55338;43.062;25.624;2022-08-18T13:24:38;44.20;15.60
68387;DHT22;55338;43.062;25.624;2022-08-18T13:27:04;44.40;14.80
68387;DHT22;55338;43.062;25.624;2022-08-18T13:29:29;44.30;14.70
68387;DHT22;55338;43.062;25.624;2022-08-18T13:31:55;42.60;17.00
68387;DHT22;55338;43.062;25.624;2022-08-18T13:34:26;42.00;17.50
68387;DHT22;55338;43.062;25.624;2022-08-18T13:36:55;41.50;18.00
68387;DHT22;55338;43.062;25.624;2022-08-18T13:39:23;41.20;18.70
68387;DHT22;55338;43.062;25.624;2022-08-18T13:41:51;40.90;18.70
68387;DHT22;55338;43.062;25.624;2022-08-18T13:44:18;40.60;19.30
68387;DHT22;55338;43.062;25.624;2022-08-18T13:46:45;40.40;19.60
68387;DHT22;55338;43.062;25.624;2022-08-18T13:49:15;40.20;20.20
68387;DHT22;55338;43.062;25.624;2022-08-18T13:51:45;39.90;19.70
68387;DHT22;55338;43.062;25.624;2022-08-18T13:54:23;39.40;21.00
68387;DHT22;55338;43.062;25.624;2022-08-18T13:56:49;39.10;21.30
68387;DHT22;55338;43.062;25.624;2022-08-18T13:59:16;38.90;20.80
68387;DHT22;55338;43.062;25.624;2022-08-18T14:01:42;38.90;21.00
68387;DHT22;55338;43.062;25.624;2022-08-18T14:04:10;39.00;22.00
68387;DHT22;55338;43.062;25.624;2022-08-18T14:06:37;39.10;20.70
68387;DHT22;55338;43.062;25.624;2022-08-18T14:09:03;39.50;20.20
68387;DHT22;55338;43.062;25.624;2022-08-18T14:11:30;39.70;19.40
68387;DHT22;55338;43.062;25.624;2022-08-18T14:13:56;39.50;19.50
68387;DHT22;55338;43.062;25.624;2022-08-18T14:16:23;40.00;19.20
68387;DHT22;55338;43.062;25.624;2022-08-18T14:18:49;39.80;18.90
68387;DHT22;55338;43.062;25.624;2022-08-18T14:21:35;39.80;19.50
68387;DHT22;55338;43.062;25.624;2022-08-18T14:24:23;39.80;18.70
68387;DHT22;55338;43.062;25.624;2022-08-18T14:27:07;39.90;18.50
68387;DHT22;55338;43.062;25.624;2022-08-18T14:29:32;40.00;18.50
68387;DHT22;55338;43.062;25.624;2022-08-18T14:31:58;39.90;18.20
68387;DHT22;55338;43.062;25.624;2022-08-18T14:34:24;39.80;18.70
68387;DHT22;55338;43.062;25.624;2022-08-18T14:36:50;39.50;18.90
68387;DHT22;55338;43.062;25.624;2022-08-18T14:39:16;39.50;19.10
68387;DHT22;55338;43.062;25.624;2022-08-18T14:41:41;39.40;19.20
68387;DHT22;55338;43.062;25.624;2022-08-18T14:44:07;39.00;19.80
68387;DHT22;55338;43.062;25.624;2022-08-18T14:46:35;38.60;20.00
68387;DHT22;55338;43.062;25.624;2022-08-18T14:49:01;38.40;20.90
68387;DHT22;55338;43.062;25.624;2022-08-18T14:51:27;38.30;21.10
68387;DHT22;55338;43.062;25.624;2022-08-18T14:53:53;38.00;21.10
68387;DHT22;55338;43.062;25.624;2022-08-18T14:56:19;38.00;21.80
68387;DHT22;55338;43.062;25.624;2022-08-18T14:58:45;38.00;21.60
68387;DHT22;55338;43.062;25.624;2022-08-18T15:01:11;37.90;21.00
68387;DHT22;55338;43.062;25.624;2022-08-18T15:03:38;37.80;21.30
68387;DHT22;55338;43.062;25.624;2022-08-18T15:06:05;37.80;20.80
68387;DHT22;55338;43.062;25.624;2022-08-18T15:08:33;37.60;20.90
68387;DHT22;55338;43.062;25.624;2022-08-18T15:11:00;37.50;21.70
68387;DHT22;55338;43.062;25.624;2022-08-18T15:13:27;37.40;21.90
68387;DHT22;55338;43.062;25.624;2022-08-18T15:15:53;37.30;22.10
68387;DHT22;55338;43.062;25.624;2022-08-18T15:18:20;37.30;21.20
68387;DHT22;55338;43.062;25.624;2022-08-18T15:20:46;37.20;21.70
68387;DHT22;55338;43.062;25.624;2022-08-18T15:23:30;37.10;21.60
68387;DHT22;55338;43.062;25.624;2022-08-18T15:26:24;36.90;21.70
68387;DHT22;55338;43.062;25.624;2022-08-18T15:28:51;36.90;21.40
68387;DHT22;55338;43.062;25.624;2022-08-18T15:31:16;36.80;22.00
68387;DHT22;55338;43.062;25.624;2022-08-18T15:33:42;36.90;21.90
68387;DHT22;55338;43.062;25.624;2022-08-18T15:36:08;36.80;21.70
68387;DHT22;55338;43.062;25.624;2022-08-18T15:38:34;36.70;22.20
68387;DHT22;55338;43.062;25.624;2022-08-18T15:41:01;36.70;22.30
68387;DHT22;55338;43.062;25.624;2022-08-18T15:43:30;36.70;22.10
68387;DHT22;55338;43.062;25.624;2022-08-18T15:45:58;36.60;22.30
68387;DHT22;55338;43.062;25.624;2022-08-18T15:48:26;36.60;23.20
68387;DHT22;55338;43.062;25.624;2022-08-18T15:50:52;36.60;22.60
68387;DHT22;55338;43.062;25.624;2022-08-18T15:53:21;36.40;22.40
68387;DHT22;55338;43.062;25.624;2022-08-18T15:55:48;36.40;22.70
68387;DHT22;55338;43.062;25.624;2022-08-18T15:58:14;36.40;22.20
68387;DHT22;55338;43.062;25.624;2022-08-18T16:00:43;36.40;22.80
68387;DHT22;55338;43.062;25.624;2022-08-18T16:03:10;36.20;27.60
68387;DHT22;55338;43.062;25.624;2022-08-18T16:05:45;36.10;23.80
68387;DHT22;55338;43.062;25.624;2022-08-18T16:08:11;36.00;23.00
68387;DHT22;55338;43.062;25.624;2022-08-18T16:10:38;36.00;24.00
68387;DHT22;55338;43.062;25.624;2022-08-18T16:13:05;35.90;22.50
68387;DHT22;55338;43.062;25.624;2022-08-18T16:15:40;35.90;25.60
68387;DHT22;55338;43.062;25.624;2022-08-18T16:18:07;35.80;26.90
68387;DHT22;55338;43.062;25.624;2022-08-18T16:20:34;35.70;25.70
68387;DHT22;55338;43.062;25.624;2022-08-18T16:23:01;35.60;25.90
68387;DHT22;55338;43.062;25.624;2022-08-18T16:25:27;35.50;25.10
68387;DHT22;55338;43.062;25.624;2022-08-18T16:27:54;35.40;31.10
68387;DHT22;55338;43.062;25.624;2022-08-18T16:30:23;35.20;29.30
68387;DHT22;55338;43.062;25.624;2022-08-18T16:32:49;35.10;27.90
68387;DHT22;55338;43.062;25.624;2022-08-18T16:35:16;34.90;26.60
68387;DHT22;55338;43.062;25.624;2022-08-18T16:37:44;34.80;30.70
68387;DHT22;55338;43.062;25.624;2022-08-18T16:40:18;34.60;32.20
68387;DHT22;55338;43.062;25.624;2022-08-18T16:42:45;34.40;31.20
68387;DHT22;55338;43.062;25.624;2022-08-18T16:45:12;34.30;29.90
68387;DHT22;55338;43.062;25.624;2022-08-18T16:47:38;34.20;29.50
68387;DHT22;55338;43.062;25.624;2022-08-18T16:50:13;34.10;30.90
68387;DHT22;55338;43.062;25.624;2022-08-18T16:52:40;33.90;33.80
68387;DHT22;55338;43.062;25.624;2022-08-18T16:55:08;33.70;34.30
68387;DHT22;55338;43.062;25.624;2022-08-18T16:57:37;33.50;33.40
68387;DHT22;55338;43.062;25.624;2022-08-18T17:00:23;33.30;36.60
68387;DHT22;55338;43.062;25.624;2022-08-18T17:03:08;33.00;38.50
68387;DHT22;55338;43.062;25.624;2022-08-18T17:06:05;32.70;40.90
68387;DHT22;55338;43.062;25.624;2022-08-18T17:08:32;32.40;41.10
68387;DHT22;55338;43.062;25.624;2022-08-18T17:11:00;32.20;41.10
68387;DHT22;55338;43.062;25.624;2022-08-18T17:13:26;32.00;40.00
68387;DHT22;55338;43.062;25.624;2022-08-18T17:15:52;31.80;39.80
68387;DHT22;55338;43.062;25.624;2022-08-18T17:18:17;31.70;40.00
68387;DHT22;55338;43.062;25.624;2022-08-18T17:20:45;31.60;39.10
68387;DHT22;55338;43.062;25.624;2022-08-18T17:23:10;31.50;39.10
68387;DHT22;55338;43.062;25.624;2022-08-18T17:25:37;31.40;40.30
68387;DHT22;55338;43.062;25.624;2022-08-18T17:28:03;31.30;39.40
68387;DHT22;55338;43.062;25.624;2022-08-18T17:30:32;31.20;42.10
68387;DHT22;55338;43.062;25.624;2022-08-18T17:33:07;31.10;41.50
68387;DHT22;55338;43.062;25.624;2022-08-18T17:35:36;31.00;42.20
68387;DHT22;55338;43.062;25.624;2022-08-18T17:38:10;30.90;41.80
68387;DHT22;55338;43.062;25.624;2022-08-18T17:40:42;30.80;43.00
68387;DHT22;55338;43.062;25.624;2022-08-18T17:43:12;30.60;43.60
68387;DHT22;55338;43.062;25.624;2022-08-18T17:45:39;30.40;44.20
68387;DHT22;55338;43.062;25.624;2022-08-18T17:49:10;30.30;44.50
68387;DHT22;55338;43.062;25.624;2022-08-18T17:51:07;30.10;45.30
68387;DHT22;55338;43.062;25.624;2022-08-18T17:53:53;29.90;45.50
68387;DHT22;55338;43.062;25.624;2022-08-18T17:56:22;29.80;46.80
68387;DHT22;55338;43.062;25.624;2022-08-18T17:58:59;29.60;46.20
68387;DHT22;55338;43.062;25.624;2022-08-18T18:01:29;29.50;46.30
68387;DHT22;55338;43.062;25.624;2022-08-18T18:03:57;29.40;47.80
68387;DHT22;55338;43.062;25.624;2022-08-18T18:11:42;29.20;48.20
68387;DHT22;55338;43.062;25.624;2022-08-18T18:17:18;29.20;48.50
68387;DHT22;55338;43.062;25.624;2022-08-18T18:19:48;29.10;49.00
68387;DHT22;55338;43.062;25.624;2022-08-18T18:22:20;29.10;49.80
68387;DHT22;55338;43.062;25.624;2022-08-18T18:24:55;29.00;49.60